sensor_id;sensor_type;location;lat;lon;timestamp;P1;durP1;ratioP1;P2;durP2;ratioP2
5008;SDS011;2523;51.058;6.922;2022-07-23T00:00:28;19.20;;;14.00;;
5008;SDS011;2523;51.058;6.922;2022-07-23T00:02:54;16.80;;;13.90;;
5008;SDS011;2523;51.058;6.922;2022-07-23T00:05:19;17.10;;;13.67;;
5008;SDS011;2523;51.058;6.922;2022-07-23T00:07:45;22.40;;;15.20;;
5008;SDS011;2523;51.058;6.922;2022-07-23T00:10:10;21.67;;;15.87;;
5008;SDS011;2523;51.058;6.922;2022-07-23T00:12:36;16.50;;;14.07;;
5008;SDS011;2523;51.058;6.922;2022-07-23T00:15:03;18.57;;;14.27;;
5008;SDS011;2523;51.058;6.922;2022-07-23T00:17:30;20.17;;;15.10;;
5008;SDS011;2523;51.058;6.922;2022-07-23T00:19:56;21.40;;;15.23;;
5008;SDS011;2523;51.058;6.922;2022-07-23T00:22:21;19.60;;;14.47;;
5008;SDS011;2523;51.058;6.922;2022-07-23T00:24:47;18.83;;;15.63;;
5008;SDS011;2523;51.058;6.922;2022-07-23T00:27:12;19.10;;;14.27;;
5008;SDS011;2523;51.058;6.922;2022-07-23T00:29:38;17.50;;;14.37;;
5008;SDS011;2523;51.058;6.922;2022-07-23T00:32:04;20.33;;;14.07;;
5008;SDS011;2523;51.058;6.922;2022-07-23T00:34:29;20.60;;;15.03;;
5008;SDS011;2523;51.058;6.922;2022-07-23T00:36:55;19.57;;;14.37;;
5008;SDS011;2523;51.058;6.922;2022-07-23T00:39:21;19.30;;;15.50;;
5008;SDS011;2523;51.058;6.922;2022-07-23T00:41:47;18.83;;;16.00;;
5008;SDS011;2523;51.058;6.922;2022-07-23T00:44:20;20.40;;;14.80;;
5008;SDS011;2523;51.058;6.922;2022-07-23T00:46:51;21.30;;;15.47;;
5008;SDS011;2523;51.058;6.922;2022-07-23T00:49:21;21.60;;;15.33;;
5008;SDS011;2523;51.058;6.922;2022-07-23T00:51:48;20.20;;;15.93;;
5008;SDS011;2523;51.058;6.922;2022-07-23T00:54:15;19.63;;;15.90;;
5008;SDS011;2523;51.058;6.922;2022-07-23T00:56:46;19.80;;;14.97;;
5008;SDS011;2523;51.058;6.922;2022-07-23T00:59:12;18.00;;;14.43;;
5008;SDS011;2523;51.058;6.922;2022-07-23T01:01:38;18.17;;;14.07;;
5008;SDS011;2523;51.058;6.922;2022-07-23T01:04:04;17.20;;;14.30;;
5008;SDS011;2523;51.058;6.922;2022-07-23T01:06:30;20.50;;;15.10;;
5008;SDS011;2523;51.058;6.922;2022-07-23T01:09:02;17.93;;;14.43;;
5008;SDS011;2523;51.058;6.922;2022-07-23T01:11:29;22.23;;;14.90;;
5008;SDS011;2523;51.058;6.922;2022-07-23T01:13:56;16.93;;;13.87;;
5008;SDS011;2523;51.058;6.922;2022-07-23T01:16:21;21.60;;;15.23;;
5008;SDS011;2523;51.058;6.922;2022-07-23T01:18:47;28.33;;;15.17;;
5008;SDS011;2523;51.058;6.922;2022-07-23T01:21:12;25.63;;;15.10;;
5008;SDS011;2523;51.058;6.922;2022-07-23T01:23:39;17.17;;;14.57;;
5008;SDS011;2523;51.058;6.922;2022-07-23T01:26:05;16.97;;;14.80;;
5008;SDS011;2523;51.058;6.922;2022-07-23T01:28:30;21.63;;;14.80;;
5008;SDS011;2523;51.058;6.922;2022-07-23T01:30:56;21.23;;;13.80;;
5008;SDS011;2523;51.058;6.922;2022-07-23T01:33:21;19.97;;;14.63;;
5008;SDS011;2523;51.058;6.922;2022-07-23T01:35:47;19.43;;;15.37;;
5008;SDS011;2523;51.058;6.922;2022-07-23T01:38:12;19.87;;;15.50;;
5008;SDS011;2523;51.058;6.922;2022-07-23T01:40:38;25.50;;;15.40;;
5008;SDS011;2523;51.058;6.922;2022-07-23T01:43:03;18.90;;;15.20;;
5008;SDS011;2523;51.058;6.922;2022-07-23T01:45:29;20.20;;;15.47;;
5008;SDS011;2523;51.058;6.922;2022-07-23T01:47:55;19.30;;;14.13;;
5008;SDS011;2523;51.058;6.922;2022-07-23T01:50:20;20.03;;;14.77;;
5008;SDS011;2523;51.058;6.922;2022-07-23T01:52:46;22.57;;;17.97;;
5008;SDS011;2523;51.058;6.922;2022-07-23T01:55:11;18.50;;;14.27;;
5008;SDS011;2523;51.058;6.922;2022-07-23T01:57:37;23.40;;;15.50;;
5008;SDS011;2523;51.058;6.922;2022-07-23T02:00:03;23.07;;;16.00;;
5008;SDS011;2523;51.058;6.922;2022-07-23T02:02:29;19.20;;;15.20;;
5008;SDS011;2523;51.058;6.922;2022-07-23T02:04:54;21.30;;;15.93;;
5008;SDS011;2523;51.058;6.922;2022-07-23T02:07:20;22.97;;;16.20;;
5008;SDS011;2523;51.058;6.922;2022-07-23T02:09:45;22.97;;;14.87;;
5008;SDS011;2523;51.058;6.922;2022-07-23T02:12:11;20.43;;;15.40;;
5008;SDS011;2523;51.058;6.922;2022-07-23T02:14:36;21.23;;;15.80;;
5008;SDS011;2523;51.058;6.922;2022-07-23T02:17:02;21.50;;;15.10;;
5008;SDS011;2523;51.058;6.922;2022-07-23T02:19:28;23.07;;;17.50;;
5008;SDS011;2523;51.058;6.922;2022-07-23T02:21:54;26.00;;;16.07;;
5008;SDS011;2523;51.058;6.922;2022-07-23T02:24:19;22.23;;;16.40;;
5008;SDS011;2523;51.058;6.922;2022-07-23T02:26:45;23.10;;;16.50;;
5008;SDS011;2523;51.058;6.922;2022-07-23T02:29:11;21.87;;;15.47;;
5008;SDS011;2523;51.058;6.922;2022-07-23T02:31:37;19.57;;;14.83;;
5008;SDS011;2523;51.058;6.922;2022-07-23T02:34:03;22.83;;;14.57;;
5008;SDS011;2523;51.058;6.922;2022-07-23T02:36:28;20.37;;;14.73;;
5008;SDS011;2523;51.058;6.922;2022-07-23T02:38:54;20.17;;;15.83;;
5008;SDS011;2523;51.058;6.922;2022-07-23T02:41:20;23.43;;;15.87;;
5008;SDS011;2523;51.058;6.922;2022-07-23T02:43:46;20.73;;;14.83;;
5008;SDS011;2523;51.058;6.922;2022-07-23T02:46:11;21.17;;;14.90;;
5008;SDS011;2523;51.058;6.922;2022-07-23T02:48:37;22.60;;;14.80;;
5008;SDS011;2523;51.058;6.922;2022-07-23T02:51:03;21.27;;;15.27;;
5008;SDS011;2523;51.058;6.922;2022-07-23T02:53:29;18.10;;;14.17;;
5008;SDS011;2523;51.058;6.922;2022-07-23T02:55:54;19.00;;;13.53;;
5008;SDS011;2523;51.058;6.922;2022-07-23T02:58:20;19.20;;;13.93;;
5008;SDS011;2523;51.058;6.922;2022-07-23T03:00:46;19.83;;;14.10;;
5008;SDS011;2523;51.058;6.922;2022-07-23T03:03:12;18.07;;;13.97;;
5008;SDS011;2523;51.058;6.922;2022-07-23T03:05:37;19.60;;;14.63;;
5008;SDS011;2523;51.058;6.922;2022-07-23T03:08:03;21.63;;;14.20;;
5008;SDS011;2523;51.058;6.922;2022-07-23T03:10:29;18.00;;;12.70;;
5008;SDS011;2523;51.058;6.922;2022-07-23T03:12:54;19.33;;;13.83;;
5008;SDS011;2523;51.058;6.922;2022-07-23T03:15:20;18.77;;;13.20;;
5008;SDS011;2523;51.058;6.922;2022-07-23T03:17:45;19.10;;;13.47;;
5008;SDS011;2523;51.058;6.922;2022-07-23T03:20:11;18.83;;;14.17;;
5008;SDS011;2523;51.058;6.922;2022-07-23T03:22:36;20.20;;;14.40;;
5008;SDS011;2523;51.058;6.922;2022-07-23T03:25:02;18.80;;;15.10;;
5008;SDS011;2523;51.058;6.922;2022-07-23T03:27:28;17.93;;;14.13;;
5008;SDS011;2523;51.058;6.922;2022-07-23T03:29:56;19.03;;;13.13;;
5008;SDS011;2523;51.058;6.922;2022-07-23T03:32:23;19.37;;;13.30;;
5008;SDS011;2523;51.058;6.922;2022-07-23T03:34:49;15.73;;;11.40;;
5008;SDS011;2523;51.058;6.922;2022-07-23T03:37:16;17.00;;;13.80;;
5008;SDS011;2523;51.058;6.922;2022-07-23T03:39:42;20.43;;;14.30;;
5008;SDS011;2523;51.058;6.922;2022-07-23T03:42:07;20.60;;;13.00;;
5008;SDS011;2523;51.058;6.922;2022-07-23T03:44:33;17.90;;;12.23;;
5008;SDS011;2523;51.058;6.922;2022-07-23T03:46:59;15.97;;;11.53;;
5008;SDS011;2523;51.058;6.922;2022-07-23T03:49:25;19.20;;;14.03;;
5008;SDS011;2523;51.058;6.922;2022-07-23T03:51:50;17.27;;;12.93;;
5008;SDS011;2523;51.058;6.922;2022-07-23T03:54:16;17.80;;;14.00;;
5008;SDS011;2523;51.058;6.922;2022-07-23T03:56:41;19.07;;;14.23;;
5008;SDS011;2523;51.058;6.922;2022-07-23T03:59:08;18.40;;;13.60;;
5008;SDS011;2523;51.058;6.922;2022-07-23T04:01:34;18.27;;;13.43;;
5008;SDS011;2523;51.058;6.922;2022-07-23T04:04:00;19.00;;;13.97;;
5008;SDS011;2523;51.058;6.922;2022-07-23T04:06:26;18.57;;;13.80;;
5008;SDS011;2523;51.058;6.922;2022-07-23T04:08:51;20.93;;;14.43;;
5008;SDS011;2523;51.058;6.922;2022-07-23T04:11:17;20.07;;;14.67;;
5008;SDS011;2523;51.058;6.922;2022-07-23T04:13:42;20.93;;;14.77;;
5008;SDS011;2523;51.058;6.922;2022-07-23T04:16:08;23.73;;;15.13;;
5008;SDS011;2523;51.058;6.922;2022-07-23T04:18:34;19.13;;;14.43;;
5008;SDS011;2523;51.058;6.922;2022-07-23T04:20:59;19.07;;;13.23;;
5008;SDS011;2523;51.058;6.922;2022-07-23T04:23:25;20.40;;;15.60;;
5008;SDS011;2523;51.058;6.922;2022-07-23T04:25:50;22.13;;;16.10;;
5008;SDS011;2523;51.058;6.922;2022-07-23T04:28:16;22.80;;;15.33;;
5008;SDS011;2523;51.058;6.922;2022-07-23T04:30:42;21.60;;;15.93;;
5008;SDS011;2523;51.058;6.922;2022-07-23T04:33:07;24.30;;;16.90;;
5008;SDS011;2523;51.058;6.922;2022-07-23T04:35:33;23.40;;;17.07;;
5008;SDS011;2523;51.058;6.922;2022-07-23T04:37:59;20.33;;;14.57;;
5008;SDS011;2523;51.058;6.922;2022-07-23T04:40:25;21.03;;;15.67;;
5008;SDS011;2523;51.058;6.922;2022-07-23T04:42:51;18.97;;;14.27;;
5008;SDS011;2523;51.058;6.922;2022-07-23T04:45:17;21.33;;;15.43;;
5008;SDS011;2523;51.058;6.922;2022-07-23T04:47:43;26.77;;;15.37;;
5008;SDS011;2523;51.058;6.922;2022-07-23T04:50:08;20.10;;;15.57;;
5008;SDS011;2523;51.058;6.922;2022-07-23T04:52:34;20.00;;;14.83;;
5008;SDS011;2523;51.058;6.922;2022-07-23T04:54:59;22.50;;;15.57;;
5008;SDS011;2523;51.058;6.922;2022-07-23T04:57:25;19.80;;;15.23;;
5008;SDS011;2523;51.058;6.922;2022-07-23T04:59:51;21.17;;;15.27;;
5008;SDS011;2523;51.058;6.922;2022-07-23T05:02:16;19.27;;;14.13;;
5008;SDS011;2523;51.058;6.922;2022-07-23T05:04:42;23.23;;;15.20;;
5008;SDS011;2523;51.058;6.922;2022-07-23T05:07:07;21.80;;;15.00;;
5008;SDS011;2523;51.058;6.922;2022-07-23T05:09:33;21.27;;;15.13;;
5008;SDS011;2523;51.058;6.922;2022-07-23T05:11:59;21.27;;;14.77;;
5008;SDS011;2523;51.058;6.922;2022-07-23T05:14:24;18.80;;;14.57;;
5008;SDS011;2523;51.058;6.922;2022-07-23T05:16:50;19.70;;;13.53;;
5008;SDS011;2523;51.058;6.922;2022-07-23T05:19:16;19.60;;;14.37;;
5008;SDS011;2523;51.058;6.922;2022-07-23T05:21:41;23.20;;;16.13;;
5008;SDS011;2523;51.058;6.922;2022-07-23T05:24:07;18.57;;;13.60;;
5008;SDS011;2523;51.058;6.922;2022-07-23T05:26:32;20.33;;;13.90;;
5008;SDS011;2523;51.058;6.922;2022-07-23T05:28:58;19.07;;;14.03;;
5008;SDS011;2523;51.058;6.922;2022-07-23T05:31:23;19.80;;;14.20;;
5008;SDS011;2523;51.058;6.922;2022-07-23T05:33:49;21.30;;;14.50;;
5008;SDS011;2523;51.058;6.922;2022-07-23T05:36:14;19.93;;;13.90;;
5008;SDS011;2523;51.058;6.922;2022-07-23T05:38:40;18.67;;;14.90;;
5008;SDS011;2523;51.058;6.922;2022-07-23T05:41:06;17.63;;;13.97;;
5008;SDS011;2523;51.058;6.922;2022-07-23T05:43:31;20.93;;;15.13;;
5008;SDS011;2523;51.058;6.922;2022-07-23T05:45:57;22.50;;;16.20;;
5008;SDS011;2523;51.058;6.922;2022-07-23T05:48:22;21.17;;;14.40;;
5008;SDS011;2523;51.058;6.922;2022-07-23T05:50:48;20.67;;;14.13;;
5008;SDS011;2523;51.058;6.922;2022-07-23T05:53:13;22.57;;;14.80;;
5008;SDS011;2523;51.058;6.922;2022-07-23T05:55:40;22.13;;;15.80;;
5008;SDS011;2523;51.058;6.922;2022-07-23T05:58:05;19.47;;;14.00;;
5008;SDS011;2523;51.058;6.922;2022-07-23T06:00:31;19.63;;;14.37;;
5008;SDS011;2523;51.058;6.922;2022-07-23T06:02:57;21.03;;;14.57;;
5008;SDS011;2523;51.058;6.922;2022-07-23T06:05:22;20.70;;;14.73;;
5008;SDS011;2523;51.058;6.922;2022-07-23T06:07:48;23.00;;;15.17;;
5008;SDS011;2523;51.058;6.922;2022-07-23T06:10:14;19.93;;;15.47;;
5008;SDS011;2523;51.058;6.922;2022-07-23T06:12:40;19.37;;;14.97;;
5008;SDS011;2523;51.058;6.922;2022-07-23T06:15:06;19.90;;;14.93;;
5008;SDS011;2523;51.058;6.922;2022-07-23T06:17:32;21.37;;;16.10;;
5008;SDS011;2523;51.058;6.922;2022-07-23T06:19:58;19.83;;;15.47;;
5008;SDS011;2523;51.058;6.922;2022-07-23T06:22:23;22.87;;;15.47;;
5008;SDS011;2523;51.058;6.922;2022-07-23T06:24:49;19.20;;;15.27;;
5008;SDS011;2523;51.058;6.922;2022-07-23T06:27:16;18.23;;;15.10;;
5008;SDS011;2523;51.058;6.922;2022-07-23T06:29:42;20.43;;;14.70;;
5008;SDS011;2523;51.058;6.922;2022-07-23T06:32:07;18.67;;;15.33;;
5008;SDS011;2523;51.058;6.922;2022-07-23T06:34:33;19.87;;;13.73;;
5008;SDS011;2523;51.058;6.922;2022-07-23T06:36:59;19.97;;;14.10;;
5008;SDS011;2523;51.058;6.922;2022-07-23T06:39:25;19.70;;;14.83;;
5008;SDS011;2523;51.058;6.922;2022-07-23T06:41:50;19.97;;;14.13;;
5008;SDS011;2523;51.058;6.922;2022-07-23T06:44:16;18.33;;;14.07;;
5008;SDS011;2523;51.058;6.922;2022-07-23T06:46:42;26.60;;;14.30;;
5008;SDS011;2523;51.058;6.922;2022-07-23T06:49:07;19.60;;;13.90;;
5008;SDS011;2523;51.058;6.922;2022-07-23T06:51:33;16.83;;;13.73;;
5008;SDS011;2523;51.058;6.922;2022-07-23T06:53:59;22.90;;;13.90;;
5008;SDS011;2523;51.058;6.922;2022-07-23T06:56:24;21.10;;;14.20;;
5008;SDS011;2523;51.058;6.922;2022-07-23T06:58:50;17.10;;;13.70;;
5008;SDS011;2523;51.058;6.922;2022-07-23T07:01:16;16.73;;;13.00;;
5008;SDS011;2523;51.058;6.922;2022-07-23T07:03:41;19.10;;;13.90;;
5008;SDS011;2523;51.058;6.922;2022-07-23T07:06:07;17.70;;;13.60;;
5008;SDS011;2523;51.058;6.922;2022-07-23T07:08:33;21.47;;;13.07;;
5008;SDS011;2523;51.058;6.922;2022-07-23T07:10:58;17.37;;;11.90;;
5008;SDS011;2523;51.058;6.922;2022-07-23T07:13:24;13.00;;;10.90;;
5008;SDS011;2523;51.058;6.922;2022-07-23T07:15:49;13.77;;;11.03;;
5008;SDS011;2523;51.058;6.922;2022-07-23T07:18:15;14.13;;;10.27;;
5008;SDS011;2523;51.058;6.922;2022-07-23T07:20:40;14.53;;;11.37;;
5008;SDS011;2523;51.058;6.922;2022-07-23T07:23:06;15.87;;;12.23;;
5008;SDS011;2523;51.058;6.922;2022-07-23T07:25:31;17.10;;;10.97;;
5008;SDS011;2523;51.058;6.922;2022-07-23T07:27:57;14.10;;;10.53;;
5008;SDS011;2523;51.058;6.922;2022-07-23T07:30:23;12.77;;;10.33;;
5008;SDS011;2523;51.058;6.922;2022-07-23T07:32:48;15.20;;;11.20;;
5008;SDS011;2523;51.058;6.922;2022-07-23T07:35:14;13.97;;;9.80;;
5008;SDS011;2523;51.058;6.922;2022-07-23T07:37:39;17.33;;;9.77;;
5008;SDS011;2523;51.058;6.922;2022-07-23T07:40:05;14.63;;;8.40;;
5008;SDS011;2523;51.058;6.922;2022-07-23T07:42:31;12.30;;;8.03;;
5008;SDS011;2523;51.058;6.922;2022-07-23T07:44:57;11.60;;;9.00;;
5008;SDS011;2523;51.058;6.922;2022-07-23T07:47:23;17.20;;;12.50;;
5008;SDS011;2523;51.058;6.922;2022-07-23T07:49:49;16.20;;;12.10;;
5008;SDS011;2523;51.058;6.922;2022-07-23T07:52:14;14.50;;;11.97;;
5008;SDS011;2523;51.058;6.922;2022-07-23T07:54:40;12.80;;;11.40;;
5008;SDS011;2523;51.058;6.922;2022-07-23T07:57:05;15.00;;;13.00;;
5008;SDS011;2523;51.058;6.922;2022-07-23T07:59:31;16.20;;;12.40;;
5008;SDS011;2523;51.058;6.922;2022-07-23T08:01:56;14.23;;;11.30;;
5008;SDS011;2523;51.058;6.922;2022-07-23T08:04:22;13.33;;;11.30;;
5008;SDS011;2523;51.058;6.922;2022-07-23T08:06:47;12.73;;;10.63;;
5008;SDS011;2523;51.058;6.922;2022-07-23T08:09:13;15.67;;;9.93;;
5008;SDS011;2523;51.058;6.922;2022-07-23T08:11:38;12.00;;;10.43;;
5008;SDS011;2523;51.058;6.922;2022-07-23T08:14:04;13.87;;;11.07;;
5008;SDS011;2523;51.058;6.922;2022-07-23T08:16:30;16.70;;;10.57;;
5008;SDS011;2523;51.058;6.922;2022-07-23T08:18:55;13.80;;;11.97;;
5008;SDS011;2523;51.058;6.922;2022-07-23T08:21:21;15.63;;;12.20;;
5008;SDS011;2523;51.058;6.922;2022-07-23T08:23:46;18.00;;;13.10;;
5008;SDS011;2523;51.058;6.922;2022-07-23T08:26:12;16.60;;;12.17;;
5008;SDS011;2523;51.058;6.922;2022-07-23T08:28:37;13.43;;;10.50;;
5008;SDS011;2523;51.058;6.922;2022-07-23T08:31:03;15.50;;;12.40;;
5008;SDS011;2523;51.058;6.922;2022-07-23T08:33:30;14.63;;;12.73;;
5008;SDS011;2523;51.058;6.922;2022-07-23T08:35:56;20.37;;;15.60;;
5008;SDS011;2523;51.058;6.922;2022-07-23T08:38:22;18.00;;;14.70;;
5008;SDS011;2523;51.058;6.922;2022-07-23T08:40:49;19.27;;;15.43;;
5008;SDS011;2523;51.058;6.922;2022-07-23T08:43:17;22.90;;;18.53;;
5008;SDS011;2523;51.058;6.922;2022-07-23T08:45:44;18.07;;;16.17;;
5008;SDS011;2523;51.058;6.922;2022-07-23T08:48:17;20.43;;;18.33;;
5008;SDS011;2523;51.058;6.922;2022-07-23T08:50:51;20.00;;;17.30;;
5008;SDS011;2523;51.058;6.922;2022-07-23T08:53:19;23.23;;;20.20;;
5008;SDS011;2523;51.058;6.922;2022-07-23T08:55:49;19.43;;;17.23;;
5008;SDS011;2523;51.058;6.922;2022-07-23T08:58:16;22.27;;;17.83;;
5008;SDS011;2523;51.058;6.922;2022-07-23T09:00:42;20.90;;;17.30;;
5008;SDS011;2523;51.058;6.922;2022-07-23T09:03:12;20.80;;;16.93;;
5008;SDS011;2523;51.058;6.922;2022-07-23T09:05:44;22.23;;;17.47;;
5008;SDS011;2523;51.058;6.922;2022-07-23T09:08:18;21.67;;;16.23;;
5008;SDS011;2523;51.058;6.922;2022-07-23T09:10:48;19.57;;;17.50;;
5008;SDS011;2523;51.058;6.922;2022-07-23T09:13:34;19.97;;;16.87;;
5008;SDS011;2523;51.058;6.922;2022-07-23T09:21:13;16.33;;;14.63;;
5008;SDS011;2523;51.058;6.922;2022-07-23T09:23:42;16.17;;;14.47;;
5008;SDS011;2523;51.058;6.922;2022-07-23T09:26:23;18.40;;;14.47;;
5008;SDS011;2523;51.058;6.922;2022-07-23T09:31:23;16.50;;;14.80;;
5008;SDS011;2523;51.058;6.922;2022-07-23T09:33:50;18.07;;;15.67;;
5008;SDS011;2523;51.058;6.922;2022-07-23T09:36:26;14.17;;;12.77;;
5008;SDS011;2523;51.058;6.922;2022-07-23T09:38:53;12.93;;;11.63;;
5008;SDS011;2523;51.058;6.922;2022-07-23T09:41:19;13.87;;;12.57;;
5008;SDS011;2523;51.058;6.922;2022-07-23T09:43:44;15.30;;;12.40;;
5008;SDS011;2523;51.058;6.922;2022-07-23T09:46:26;15.73;;;14.07;;
5008;SDS011;2523;51.058;6.922;2022-07-23T09:48:53;14.43;;;12.93;;
5008;SDS011;2523;51.058;6.922;2022-07-23T09:51:21;16.67;;;14.87;;
5008;SDS011;2523;51.058;6.922;2022-07-23T09:54:00;13.90;;;12.40;;
5008;SDS011;2523;51.058;6.922;2022-07-23T09:56:25;13.60;;;11.50;;
5008;SDS011;2523;51.058;6.922;2022-07-23T09:58:52;15.17;;;13.63;;
5008;SDS011;2523;51.058;6.922;2022-07-23T10:01:32;16.20;;;14.50;;
5008;SDS011;2523;51.058;6.922;2022-07-23T10:03:58;15.27;;;13.50;;
5008;SDS011;2523;51.058;6.922;2022-07-23T10:06:24;15.00;;;12.80;;
5008;SDS011;2523;51.058;6.922;2022-07-23T10:08:51;18.13;;;15.90;;
5008;SDS011;2523;51.058;6.922;2022-07-23T10:11:22;17.33;;;14.10;;
5008;SDS011;2523;51.058;6.922;2022-07-23T10:13:49;15.80;;;14.20;;
5008;SDS011;2523;51.058;6.922;2022-07-23T10:16:22;16.00;;;14.40;;
5008;SDS011;2523;51.058;6.922;2022-07-23T10:18:48;16.10;;;13.43;;
5008;SDS011;2523;51.058;6.922;2022-07-23T10:21:16;16.80;;;13.00;;
5008;SDS011;2523;51.058;6.922;2022-07-23T10:24:01;16.70;;;14.90;;
5008;SDS011;2523;51.058;6.922;2022-07-23T10:26:40;16.57;;;14.20;;
5008;SDS011;2523;51.058;6.922;2022-07-23T10:32:00;18.67;;;16.30;;
5008;SDS011;2523;51.058;6.922;2022-07-23T10:37:40;20.93;;;15.70;;
5008;SDS011;2523;51.058;6.922;2022-07-23T10:40:09;16.80;;;15.13;;
5008;SDS011;2523;51.058;6.922;2022-07-23T10:42:39;17.73;;;15.93;;
5008;SDS011;2523;51.058;6.922;2022-07-23T10:47:51;15.90;;;14.20;;
5008;SDS011;2523;51.058;6.922;2022-07-23T10:57:59;15.60;;;13.83;;
5008;SDS011;2523;51.058;6.922;2022-07-23T11:00:26;13.27;;;11.90;;
5008;SDS011;2523;51.058;6.922;2022-07-23T11:02:56;14.23;;;12.73;;
5008;SDS011;2523;51.058;6.922;2022-07-23T11:05:24;14.10;;;12.90;;
5008;SDS011;2523;51.058;6.922;2022-07-23T11:13:28;11.90;;;10.70;;
5008;SDS011;2523;51.058;6.922;2022-07-23T11:22:06;10.63;;;9.53;;
5008;SDS011;2523;51.058;6.922;2022-07-23T11:24:02;10.20;;;9.20;;
5008;SDS011;2523;51.058;6.922;2022-07-23T11:31:56;12.40;;;10.60;;
5008;SDS011;2523;51.058;6.922;2022-07-23T11:36:57;10.97;;;9.87;;
5008;SDS011;2523;51.058;6.922;2022-07-23T11:39:24;8.20;;;7.07;;
5008;SDS011;2523;51.058;6.922;2022-07-23T11:41:52;7.83;;;6.77;;
5008;SDS011;2523;51.058;6.922;2022-07-23T11:44:27;7.27;;;6.57;;
5008;SDS011;2523;51.058;6.922;2022-07-23T11:47:03;7.63;;;6.07;;
5008;SDS011;2523;51.058;6.922;2022-07-23T11:49:33;7.10;;;5.70;;
5008;SDS011;2523;51.058;6.922;2022-07-23T11:52:09;6.57;;;5.70;;
5008;SDS011;2523;51.058;6.922;2022-07-23T11:54:51;6.93;;;6.27;;
5008;SDS011;2523;51.058;6.922;2022-07-23T11:57:17;8.70;;;6.90;;
5008;SDS011;2523;51.058;6.922;2022-07-23T11:59:44;7.50;;;6.80;;
5008;SDS011;2523;51.058;6.922;2022-07-23T12:02:13;7.30;;;5.73;;
5008;SDS011;2523;51.058;6.922;2022-07-23T12:09:49;6.57;;;5.90;;
5008;SDS011;2523;51.058;6.922;2022-07-23T12:12:14;7.30;;;6.60;;
5008;SDS011;2523;51.058;6.922;2022-07-23T12:15:13;7.67;;;6.70;;
5008;SDS011;2523;51.058;6.922;2022-07-23T12:17:34;6.03;;;5.53;;
5008;SDS011;2523;51.058;6.922;2022-07-23T12:20:02;7.50;;;6.80;;
5008;SDS011;2523;51.058;6.922;2022-07-23T12:22:38;7.10;;;6.40;;
5008;SDS011;2523;51.058;6.922;2022-07-23T12:25:07;7.33;;;6.07;;
5008;SDS011;2523;51.058;6.922;2022-07-23T12:27:37;7.50;;;6.00;;
5008;SDS011;2523;51.058;6.922;2022-07-23T12:32:52;6.60;;;6.00;;
5008;SDS011;2523;51.058;6.922;2022-07-23T12:35:20;9.80;;;6.53;;
5008;SDS011;2523;51.058;6.922;2022-07-23T12:37:47;7.30;;;6.70;;
5008;SDS011;2523;51.058;6.922;2022-07-23T12:40:17;6.10;;;5.60;;
5008;SDS011;2523;51.058;6.922;2022-07-23T12:42:52;7.13;;;6.43;;
5008;SDS011;2523;51.058;6.922;2022-07-23T12:45:22;7.67;;;5.90;;
5008;SDS011;2523;51.058;6.922;2022-07-23T12:53:11;6.10;;;5.50;;
5008;SDS011;2523;51.058;6.922;2022-07-23T12:55:39;7.93;;;5.70;;
5008;SDS011;2523;51.058;6.922;2022-07-23T12:58:07;7.80;;;6.50;;
5008;SDS011;2523;51.058;6.922;2022-07-23T13:05:51;6.23;;;4.90;;
5008;SDS011;2523;51.058;6.922;2022-07-23T13:08:17;4.53;;;4.13;;
5008;SDS011;2523;51.058;6.922;2022-07-23T13:10:42;4.50;;;4.10;;
5008;SDS011;2523;51.058;6.922;2022-07-23T13:13:09;6.17;;;3.90;;
5008;SDS011;2523;51.058;6.922;2022-07-23T13:15:35;4.30;;;3.90;;
5008;SDS011;2523;51.058;6.922;2022-07-23T13:18:01;7.00;;;4.50;;
5008;SDS011;2523;51.058;6.922;2022-07-23T13:20:26;5.33;;;4.67;;
5008;SDS011;2523;51.058;6.922;2022-07-23T13:22:52;4.00;;;3.70;;
5008;SDS011;2523;51.058;6.922;2022-07-23T13:25:18;5.10;;;4.67;;
5008;SDS011;2523;51.058;6.922;2022-07-23T13:27:43;4.43;;;3.77;;
5008;SDS011;2523;51.058;6.922;2022-07-23T13:30:09;6.13;;;4.00;;
5008;SDS011;2523;51.058;6.922;2022-07-23T13:32:36;4.53;;;4.13;;
5008;SDS011;2523;51.058;6.922;2022-07-23T13:35:02;4.83;;;4.27;;
5008;SDS011;2523;51.058;6.922;2022-07-23T13:37:28;5.20;;;4.23;;
5008;SDS011;2523;51.058;6.922;2022-07-23T13:39:53;3.80;;;3.50;;
5008;SDS011;2523;51.058;6.922;2022-07-23T13:42:19;4.60;;;4.20;;
5008;SDS011;2523;51.058;6.922;2022-07-23T13:44:44;4.00;;;3.60;;
5008;SDS011;2523;51.058;6.922;2022-07-23T13:47:10;4.10;;;3.73;;
5008;SDS011;2523;51.058;6.922;2022-07-23T13:49:35;4.30;;;3.90;;
5008;SDS011;2523;51.058;6.922;2022-07-23T13:52:01;4.17;;;3.57;;
5008;SDS011;2523;51.058;6.922;2022-07-23T13:54:30;4.73;;;4.30;;
5008;SDS011;2523;51.058;6.922;2022-07-23T13:56:56;4.40;;;4.00;;
5008;SDS011;2523;51.058;6.922;2022-07-23T13:59:21;4.30;;;3.90;;
5008;SDS011;2523;51.058;6.922;2022-07-23T14:01:47;4.70;;;3.90;;
5008;SDS011;2523;51.058;6.922;2022-07-23T14:04:12;4.30;;;4.00;;
5008;SDS011;2523;51.058;6.922;2022-07-23T14:06:38;4.83;;;4.33;;
5008;SDS011;2523;51.058;6.922;2022-07-23T14:09:03;4.73;;;3.50;;
5008;SDS011;2523;51.058;6.922;2022-07-23T14:11:29;4.10;;;3.80;;
5008;SDS011;2523;51.058;6.922;2022-07-23T14:13:56;4.13;;;3.73;;
5008;SDS011;2523;51.058;6.922;2022-07-23T14:16:21;4.37;;;3.97;;
5008;SDS011;2523;51.058;6.922;2022-07-23T14:18:47;4.17;;;3.70;;
5008;SDS011;2523;51.058;6.922;2022-07-23T14:21:13;4.03;;;3.47;;
5008;SDS011;2523;51.058;6.922;2022-07-23T14:23:39;3.97;;;3.67;;
5008;SDS011;2523;51.058;6.922;2022-07-23T14:26:04;4.10;;;3.80;;
5008;SDS011;2523;51.058;6.922;2022-07-23T14:28:32;4.70;;;3.57;;
5008;SDS011;2523;51.058;6.922;2022-07-23T14:30:58;3.70;;;3.40;;
5008;SDS011;2523;51.058;6.922;2022-07-23T14:33:23;5.00;;;4.40;;
5008;SDS011;2523;51.058;6.922;2022-07-23T14:35:49;3.90;;;3.50;;
5008;SDS011;2523;51.058;6.922;2022-07-23T14:38:14;3.87;;;3.13;;
5008;SDS011;2523;51.058;6.922;2022-07-23T14:40:40;4.70;;;4.30;;
5008;SDS011;2523;51.058;6.922;2022-07-23T14:43:06;5.10;;;3.73;;
5008;SDS011;2523;51.058;6.922;2022-07-23T14:45:32;4.20;;;3.80;;
5008;SDS011;2523;51.058;6.922;2022-07-23T14:47:58;3.40;;;3.10;;
5008;SDS011;2523;51.058;6.922;2022-07-23T14:50:23;3.43;;;3.10;;
5008;SDS011;2523;51.058;6.922;2022-07-23T14:52:49;4.37;;;3.90;;
5008;SDS011;2523;51.058;6.922;2022-07-23T14:55:15;3.97;;;3.57;;
5008;SDS011;2523;51.058;6.922;2022-07-23T14:57:42;3.90;;;3.60;;
5008;SDS011;2523;51.058;6.922;2022-07-23T15:00:08;5.67;;;3.90;;
5008;SDS011;2523;51.058;6.922;2022-07-23T15:02:34;4.10;;;3.53;;
5008;SDS011;2523;51.058;6.922;2022-07-23T15:04:59;3.47;;;3.17;;
5008;SDS011;2523;51.058;6.922;2022-07-23T15:07:26;5.60;;;3.57;;
5008;SDS011;2523;51.058;6.922;2022-07-23T15:09:52;4.57;;;3.60;;
5008;SDS011;2523;51.058;6.922;2022-07-23T15:12:18;3.30;;;3.10;;
5008;SDS011;2523;51.058;6.922;2022-07-23T15:14:43;4.63;;;2.90;;
5008;SDS011;2523;51.058;6.922;2022-07-23T15:17:09;3.93;;;3.43;;
5008;SDS011;2523;51.058;6.922;2022-07-23T15:19:35;3.57;;;3.27;;
5008;SDS011;2523;51.058;6.922;2022-07-23T15:22:01;3.90;;;3.47;;
5008;SDS011;2523;51.058;6.922;2022-07-23T15:24:26;3.37;;;3.07;;
5008;SDS011;2523;51.058;6.922;2022-07-23T15:26:52;3.83;;;3.37;;
5008;SDS011;2523;51.058;6.922;2022-07-23T15:29:17;8.27;;;3.30;;
5008;SDS011;2523;51.058;6.922;2022-07-23T15:31:43;4.03;;;3.57;;
5008;SDS011;2523;51.058;6.922;2022-07-23T15:34:08;4.20;;;3.23;;
5008;SDS011;2523;51.058;6.922;2022-07-23T15:36:34;4.80;;;3.60;;
5008;SDS011;2523;51.058;6.922;2022-07-23T15:38:59;4.83;;;3.13;;
5008;SDS011;2523;51.058;6.922;2022-07-23T15:41:25;4.43;;;3.53;;
5008;SDS011;2523;51.058;6.922;2022-07-23T15:43:50;4.30;;;3.90;;
5008;SDS011;2523;51.058;6.922;2022-07-23T15:46:17;4.83;;;3.77;;
5008;SDS011;2523;51.058;6.922;2022-07-23T15:48:46;6.13;;;3.60;;
5008;SDS011;2523;51.058;6.922;2022-07-23T15:51:11;3.90;;;3.60;;
5008;SDS011;2523;51.058;6.922;2022-07-23T15:53:37;4.40;;;4.00;;